sensor_id;sensor_type;location;lat;lon;timestamp;noise_LAeq;noise_LA_min;noise_LA_max;noise_LA01;noise_LA95
49732;Laerm;43666;51.442;6.778;2023-05-10T00:00:26;35.67;5.00;39.21;;
49732;Laerm;43666;51.442;6.778;2023-05-10T00:02:52;35.69;23.90;39.34;;
49732;Laerm;43666;51.442;6.778;2023-05-10T00:05:18;35.70;5.00;39.58;;
49732;Laerm;43666;51.442;6.778;2023-05-10T00:07:43;35.73;23.90;39.34;;
49732;Laerm;43666;51.442;6.778;2023-05-10T00:10:10;35.64;5.00;39.34;;
49732;Laerm;43666;51.442;6.778;2023-05-10T00:12:37;35.64;23.90;39.58;;
49732;Laerm;43666;51.442;6.778;2023-05-10T00:15:03;35.67;23.90;39.34;;
49732;Laerm;43666;51.442;6.778;2023-05-10T00:17:28;35.63;23.90;39.70;;
49732;Laerm;43666;51.442;6.778;2023-05-10T00:19:54;35.64;23.90;39.58;;
49732;Laerm;43666;51.442;6.778;2023-05-10T00:22:20;35.63;23.90;51.67;;
49732;Laerm;43666;51.442;6.778;2023-05-10T00:24:46;35.68;26.91;39.58;;
49732;Laerm;43666;51.442;6.778;2023-05-10T00:27:12;35.69;5.00;39.58;;
49732;Laerm;43666;51.442;6.778;2023-05-10T00:29:38;35.73;23.90;39.81;;
49732;Laerm;43666;51.442;6.778;2023-05-10T00:32:04;35.62;23.90;39.46;;
49732;Laerm;43666;51.442;6.778;2023-05-10T00:34:30;35.69;23.90;39.81;;
49732;Laerm;43666;51.442;6.778;2023-05-10T00:36:56;35.64;23.90;39.34;;
49732;Laerm;43666;51.442;6.778;2023-05-10T00:39:22;35.75;23.90;39.81;;
49732;Laerm;43666;51.442;6.778;2023-05-10T00:41:48;35.75;23.90;39.81;;
49732;Laerm;43666;51.442;6.778;2023-05-10T00:44:14;35.74;23.90;54.77;;
49732;Laerm;43666;51.442;6.778;2023-05-10T00:46:41;35.67;26.91;52.53;;
49732;Laerm;43666;51.442;6.778;2023-05-10T00:49:07;35.70;23.90;40.03;;
49732;Laerm;43666;51.442;6.778;2023-05-10T00:51:34;35.71;23.90;39.34;;
49732;Laerm;43666;51.442;6.778;2023-05-10T00:54:00;35.69;23.90;39.46;;
49732;Laerm;43666;51.442;6.778;2023-05-10T00:56:26;35.74;5.00;39.58;;
49732;Laerm;43666;51.442;6.778;2023-05-10T00:58:53;35.70;23.90;39.34;;
49732;Laerm;43666;51.442;6.778;2023-05-10T01:01:19;35.66;5.00;46.13;;
49732;Laerm;43666;51.442;6.778;2023-05-10T01:03:46;35.65;23.90;39.21;;
49732;Laerm;43666;51.442;6.778;2023-05-10T01:06:13;35.67;26.91;39.58;;
49732;Laerm;43666;51.442;6.778;2023-05-10T01:08:39;35.73;5.00;39.58;;
49732;Laerm;43666;51.442;6.778;2023-05-10T01:11:06;35.72;23.90;39.46;;
49732;Laerm;43666;51.442;6.778;2023-05-10T01:13:37;35.70;23.90;39.70;;
49732;Laerm;43666;51.442;6.778;2023-05-10T01:16:04;35.70;23.90;39.46;;
49732;Laerm;43666;51.442;6.778;2023-05-10T01:18:30;35.68;26.91;39.58;;
49732;Laerm;43666;51.442;6.778;2023-05-10T01:21:04;35.72;5.00;39.58;;
49732;Laerm;43666;51.442;6.778;2023-05-10T01:29:11;35.74;23.90;40.13;;
49732;Laerm;43666;51.442;6.778;2023-05-10T01:31:50;35.82;5.00;53.62;;
49732;Laerm;43666;51.442;6.778;2023-05-10T01:34:20;35.73;26.91;39.92;;
49732;Laerm;43666;51.442;6.778;2023-05-10T01:36:55;35.64;23.90;39.46;;
49732;Laerm;43666;51.442;6.778;2023-05-10T01:39:47;35.72;5.00;39.58;;
49732;Laerm;43666;51.442;6.778;2023-05-10T01:42:33;35.68;23.90;39.34;;
49732;Laerm;43666;51.442;6.778;2023-05-10T01:50:03;35.71;5.00;39.46;;
49732;Laerm;43666;51.442;6.778;2023-05-10T01:52:32;35.90;23.90;59.44;;
49732;Laerm;43666;51.442;6.778;2023-05-10T01:55:14;35.68;5.00;48.60;;
49732;Laerm;43666;51.442;6.778;2023-05-10T01:57:40;35.63;5.00;43.49;;
49732;Laerm;43666;51.442;6.778;2023-05-10T02:00:07;35.65;23.90;46.45;;
49732;Laerm;43666;51.442;6.778;2023-05-10T02:02:36;35.67;23.90;39.35;;
49732;Laerm;43666;51.442;6.778;2023-05-10T02:05:06;35.68;5.00;39.70;;
49732;Laerm;43666;51.442;6.778;2023-05-10T02:07:36;36.10;23.90;61.71;;
49732;Laerm;43666;51.442;6.778;2023-05-10T02:10:02;35.65;5.00;39.58;;
49732;Laerm;43666;51.442;6.778;2023-05-10T02:12:29;35.60;5.00;39.34;;
49732;Laerm;43666;51.442;6.778;2023-05-10T02:14:57;35.65;26.91;39.46;;
49732;Laerm;43666;51.442;6.778;2023-05-10T02:17:25;35.64;5.00;39.46;;
49732;Laerm;43666;51.442;6.778;2023-05-10T02:19:51;35.64;23.90;39.58;;
49732;Laerm;43666;51.442;6.778;2023-05-10T02:22:18;35.65;23.90;44.15;;
49732;Laerm;43666;51.442;6.778;2023-05-10T02:24:44;35.65;5.00;39.21;;
49732;Laerm;43666;51.442;6.778;2023-05-10T02:27:11;35.61;23.55;39.46;;
49732;Laerm;43666;51.442;6.778;2023-05-10T02:29:38;35.60;5.00;39.46;;
49732;Laerm;43666;51.442;6.778;2023-05-10T02:32:04;35.64;23.90;39.46;;
49732;Laerm;43666;51.442;6.778;2023-05-10T02:34:30;35.70;5.00;39.58;;
49732;Laerm;43666;51.442;6.778;2023-05-10T02:36:57;35.70;5.00;39.81;;
49732;Laerm;43666;51.442;6.778;2023-05-10T02:39:23;35.64;23.90;39.34;;
49732;Laerm;43666;51.442;6.778;2023-05-10T02:41:50;35.68;23.90;39.58;;
49732;Laerm;43666;51.442;6.778;2023-05-10T02:44:19;35.69;23.90;39.92;;
49732;Laerm;43666;51.442;6.778;2023-05-10T02:46:46;35.70;23.90;39.46;;
49732;Laerm;43666;51.442;6.778;2023-05-10T02:49:13;35.60;23.90;39.34;;
49732;Laerm;43666;51.442;6.778;2023-05-10T02:51:40;35.62;23.90;39.92;;
49732;Laerm;43666;51.442;6.778;2023-05-10T02:54:10;35.59;5.00;39.34;;
49732;Laerm;43666;51.442;6.778;2023-05-10T02:56:39;35.71;5.00;55.70;;
49732;Laerm;43666;51.442;6.778;2023-05-10T02:59:06;35.60;5.00;39.81;;
49732;Laerm;43666;51.442;6.778;2023-05-10T03:01:32;35.56;5.00;39.08;;
49732;Laerm;43666;51.442;6.778;2023-05-10T03:03:57;35.58;23.90;39.34;;
49732;Laerm;43666;51.442;6.778;2023-05-10T03:06:23;35.56;5.00;39.46;;
49732;Laerm;43666;51.442;6.778;2023-05-10T03:08:49;35.53;23.90;39.08;;
49732;Laerm;43666;51.442;6.778;2023-05-10T03:11:17;35.59;23.90;39.21;;
49732;Laerm;43666;51.442;6.778;2023-05-10T03:13:52;35.58;23.90;39.11;;
49732;Laerm;43666;51.442;6.778;2023-05-10T03:16:27;35.57;5.00;39.34;;
49732;Laerm;43666;51.442;6.778;2023-05-10T03:19:06;35.55;23.90;39.34;;
49732;Laerm;43666;51.442;6.778;2023-05-10T03:21:35;35.54;5.00;39.08;;
49732;Laerm;43666;51.442;6.778;2023-05-10T03:24:07;35.52;23.90;39.46;;
49732;Laerm;43666;51.442;6.778;2023-05-10T03:26:32;35.56;23.90;39.81;;
49732;Laerm;43666;51.442;6.778;2023-05-10T03:28:59;35.58;26.91;39.08;;
49732;Laerm;43666;51.442;6.778;2023-05-10T03:31:25;35.55;5.00;39.46;;
49732;Laerm;43666;51.442;6.778;2023-05-10T03:33:51;35.53;23.90;39.21;;
49732;Laerm;43666;51.442;6.778;2023-05-10T03:36:18;35.58;23.55;39.70;;
49732;Laerm;43666;51.442;6.778;2023-05-10T03:38:44;35.57;23.90;46.33;;
49732;Laerm;43666;51.442;6.778;2023-05-10T03:41:10;35.53;5.00;39.34;;
49732;Laerm;43666;51.442;6.778;2023-05-10T03:43:35;35.57;5.00;39.11;;
49732;Laerm;43666;51.442;6.778;2023-05-10T03:46:02;35.54;23.90;39.34;;
49732;Laerm;43666;51.442;6.778;2023-05-10T03:48:28;35.50;23.55;39.21;;
49732;Laerm;43666;51.442;6.778;2023-05-10T03:50:54;35.51;23.90;39.34;;
49732;Laerm;43666;51.442;6.778;2023-05-10T03:53:20;35.48;5.00;39.21;;
49732;Laerm;43666;51.442;6.778;2023-05-10T03:55:46;35.48;5.00;38.95;;
49732;Laerm;43666;51.442;6.778;2023-05-10T03:58:12;35.48;23.90;38.81;;
49732;Laerm;43666;51.442;6.778;2023-05-10T04:00:38;35.50;23.90;39.70;;
49732;Laerm;43666;51.442;6.778;2023-05-10T04:03:09;35.47;5.00;39.34;;
49732;Laerm;43666;51.442;6.778;2023-05-10T04:05:35;35.47;23.90;39.70;;
49732;Laerm;43666;51.442;6.778;2023-05-10T04:08:00;35.47;23.90;39.08;;
49732;Laerm;43666;51.442;6.778;2023-05-10T04:10:26;35.51;5.00;39.46;;
49732;Laerm;43666;51.442;6.778;2023-05-10T04:12:52;35.48;23.90;39.58;;
49732;Laerm;43666;51.442;6.778;2023-05-10T04:15:17;35.51;23.90;39.34;;
49732;Laerm;43666;51.442;6.778;2023-05-10T04:17:43;35.48;23.55;39.21;;
49732;Laerm;43666;51.442;6.778;2023-05-10T04:20:09;35.51;23.90;38.95;;
49732;Laerm;43666;51.442;6.778;2023-05-10T04:22:35;35.52;23.90;39.08;;
49732;Laerm;43666;51.442;6.778;2023-05-10T04:25:02;35.57;5.00;39.46;;
49732;Laerm;43666;51.442;6.778;2023-05-10T04:27:27;35.52;23.90;39.58;;
49732;Laerm;43666;51.442;6.778;2023-05-10T04:29:53;35.53;5.00;50.26;;
49732;Laerm;43666;51.442;6.778;2023-05-10T04:32:19;35.53;23.90;39.58;;
49732;Laerm;43666;51.442;6.778;2023-05-10T04:34:45;35.56;23.55;39.34;;
49732;Laerm;43666;51.442;6.778;2023-05-10T04:37:11;35.57;23.90;46.52;;
49732;Laerm;43666;51.442;6.778;2023-05-10T04:39:37;35.56;5.00;39.21;;
49732;Laerm;43666;51.442;6.778;2023-05-10T04:42:03;35.61;23.90;46.45;;
49732;Laerm;43666;51.442;6.778;2023-05-10T04:44:31;35.52;23.90;39.08;;
49732;Laerm;43666;51.442;6.778;2023-05-10T04:46:57;35.54;23.90;39.21;;
49732;Laerm;43666;51.442;6.778;2023-05-10T04:49:23;35.50;5.00;39.08;;
49732;Laerm;43666;51.442;6.778;2023-05-10T04:51:49;35.49;23.90;39.34;;
49732;Laerm;43666;51.442;6.778;2023-05-10T04:54:15;35.56;23.55;39.21;;
49732;Laerm;43666;51.442;6.778;2023-05-10T04:56:41;35.52;23.90;39.46;;
49732;Laerm;43666;51.442;6.778;2023-05-10T04:59:07;35.58;23.55;39.35;;
49732;Laerm;43666;51.442;6.778;2023-05-10T05:01:32;35.50;5.00;39.08;;
49732;Laerm;43666;51.442;6.778;2023-05-10T05:03:58;35.49;23.90;39.08;;
49732;Laerm;43666;51.442;6.778;2023-05-10T05:06:24;35.47;23.90;39.08;;
49732;Laerm;43666;51.442;6.778;2023-05-10T05:08:50;35.50;5.00;51.28;;
49732;Laerm;43666;51.442;6.778;2023-05-10T05:11:16;35.53;23.55;46.87;;
49732;Laerm;43666;51.442;6.778;2023-05-10T05:13:42;35.50;23.90;39.46;;
49732;Laerm;43666;51.442;6.778;2023-05-10T05:16:08;35.52;23.55;39.21;;
49732;Laerm;43666;51.442;6.778;2023-05-10T05:18:34;35.49;23.90;39.08;;
49732;Laerm;43666;51.442;6.778;2023-05-10T05:20:59;35.44;5.00;39.58;;
49732;Laerm;43666;51.442;6.778;2023-05-10T05:23:25;35.53;23.90;39.81;;
49732;Laerm;43666;51.442;6.778;2023-05-10T05:25:52;35.63;23.90;39.34;;
49732;Laerm;43666;51.442;6.778;2023-05-10T05:28:17;35.64;26.91;39.58;;
49732;Laerm;43666;51.442;6.778;2023-05-10T05:30:43;35.61;23.90;39.08;;
49732;Laerm;43666;51.442;6.778;2023-05-10T05:33:09;35.52;5.00;39.46;;
49732;Laerm;43666;51.442;6.778;2023-05-10T05:35:35;35.53;23.55;39.70;;
49732;Laerm;43666;51.442;6.778;2023-05-10T05:38:01;35.54;23.90;39.21;;
49732;Laerm;43666;51.442;6.778;2023-05-10T05:40:26;35.61;23.90;39.46;;
49732;Laerm;43666;51.442;6.778;2023-05-10T05:42:52;35.60;5.00;39.70;;
49732;Laerm;43666;51.442;6.778;2023-05-10T05:45:18;35.55;5.00;40.33;;
49732;Laerm;43666;51.442;6.778;2023-05-10T05:47:43;35.63;23.90;46.80;;
49732;Laerm;43666;51.442;6.778;2023-05-10T05:50:09;35.64;23.90;39.34;;
49732;Laerm;43666;51.442;6.778;2023-05-10T05:52:36;35.63;5.00;39.70;;
49732;Laerm;43666;51.442;6.778;2023-05-10T05:55:02;35.58;5.00;39.46;;
49732;Laerm;43666;51.442;6.778;2023-05-10T05:57:28;35.57;23.90;48.03;;
49732;Laerm;43666;51.442;6.778;2023-05-10T05:59:54;35.53;23.90;39.08;;
49732;Laerm;43666;51.442;6.778;2023-05-10T06:02:20;35.59;23.90;39.46;;
49732;Laerm;43666;51.442;6.778;2023-05-10T06:04:46;35.56;5.00;39.46;;
49732;Laerm;43666;51.442;6.778;2023-05-10T06:07:12;35.60;23.90;39.34;;
49732;Laerm;43666;51.442;6.778;2023-05-10T06:09:38;35.49;23.90;38.81;;
49732;Laerm;43666;51.442;6.778;2023-05-10T06:12:04;35.50;23.90;39.08;;
49732;Laerm;43666;51.442;6.778;2023-05-10T06:14:30;35.54;23.90;39.08;;
49732;Laerm;43666;51.442;6.778;2023-05-10T06:16:57;35.54;23.90;39.08;;
49732;Laerm;43666;51.442;6.778;2023-05-10T06:19:22;35.47;5.00;39.21;;
49732;Laerm;43666;51.442;6.778;2023-05-10T06:21:48;35.56;23.90;39.21;;
49732;Laerm;43666;51.442;6.778;2023-05-10T06:24:15;35.50;23.90;39.58;;
49732;Laerm;43666;51.442;6.778;2023-05-10T06:26:41;35.50;5.00;39.21;;
49732;Laerm;43666;51.442;6.778;2023-05-10T06:29:06;35.45;23.90;38.81;;
49732;Laerm;43666;51.442;6.778;2023-05-10T06:31:33;35.47;5.00;39.08;;
49732;Laerm;43666;51.442;6.778;2023-05-10T06:33:59;35.46;23.90;38.95;;
49732;Laerm;43666;51.442;6.778;2023-05-10T06:36:24;35.41;5.00;39.21;;
49732;Laerm;43666;51.442;6.778;2023-05-10T06:38:52;35.41;5.00;39.08;;
49732;Laerm;43666;51.442;6.778;2023-05-10T06:41:17;35.44;23.90;39.08;;
49732;Laerm;43666;51.442;6.778;2023-05-10T06:43:44;35.50;5.00;39.92;;
49732;Laerm;43666;51.442;6.778;2023-05-10T06:46:09;35.52;23.90;39.34;;
49732;Laerm;43666;51.442;6.778;2023-05-10T06:48:38;35.52;5.00;39.34;;
49732;Laerm;43666;51.442;6.778;2023-05-10T06:51:05;35.55;23.90;39.46;;
49732;Laerm;43666;51.442;6.778;2023-05-10T06:53:31;35.61;23.90;39.92;;
49732;Laerm;43666;51.442;6.778;2023-05-10T06:55:57;35.61;23.90;39.70;;
49732;Laerm;43666;51.442;6.778;2023-05-10T06:58:22;35.56;5.00;39.34;;
49732;Laerm;43666;51.442;6.778;2023-05-10T07:00:48;35.56;5.00;39.70;;
49732;Laerm;43666;51.442;6.778;2023-05-10T07:03:15;35.48;5.00;39.11;;
49732;Laerm;43666;51.442;6.778;2023-05-10T07:05:40;35.50;23.90;39.70;;
49732;Laerm;43666;51.442;6.778;2023-05-10T07:08:06;35.49;5.00;40.23;;
49732;Laerm;43666;51.442;6.778;2023-05-10T07:10:32;35.48;23.90;39.34;;
49732;Laerm;43666;51.442;6.778;2023-05-10T07:12:58;35.54;23.55;38.95;;
49732;Laerm;43666;51.442;6.778;2023-05-10T07:15:24;35.52;23.90;39.34;;
49732;Laerm;43666;51.442;6.778;2023-05-10T07:17:49;35.50;23.90;39.46;;
49732;Laerm;43666;51.442;6.778;2023-05-10T07:20:17;35.52;5.00;39.34;;
49732;Laerm;43666;51.442;6.778;2023-05-10T07:22:43;35.48;5.00;39.08;;
49732;Laerm;43666;51.442;6.778;2023-05-10T07:25:09;35.54;5.00;39.34;;
49732;Laerm;43666;51.442;6.778;2023-05-10T07:27:35;35.53;5.00;39.21;;
49732;Laerm;43666;51.442;6.778;2023-05-10T07:30:00;35.49;23.90;39.70;;
49732;Laerm;43666;51.442;6.778;2023-05-10T07:32:26;35.55;5.00;39.46;;
49732;Laerm;43666;51.442;6.778;2023-05-10T07:34:52;35.60;5.00;39.34;;
49732;Laerm;43666;51.442;6.778;2023-05-10T07:37:18;35.62;23.90;39.21;;
49732;Laerm;43666;51.442;6.778;2023-05-10T07:39:44;35.58;23.90;39.21;;
49732;Laerm;43666;51.442;6.778;2023-05-10T07:42:10;35.60;26.91;39.08;;
49732;Laerm;43666;51.442;6.778;2023-05-10T07:44:35;35.63;23.55;39.46;;
49732;Laerm;43666;51.442;6.778;2023-05-10T07:47:01;35.63;5.00;39.34;;
49732;Laerm;43666;51.442;6.778;2023-05-10T07:49:27;35.59;23.90;39.46;;
49732;Laerm;43666;51.442;6.778;2023-05-10T07:51:53;35.62;26.91;39.81;;
49732;Laerm;43666;51.442;6.778;2023-05-10T07:54:19;35.65;5.00;39.46;;
49732;Laerm;43666;51.442;6.778;2023-05-10T07:56:45;35.64;23.90;38.95;;
49732;Laerm;43666;51.442;6.778;2023-05-10T07:59:16;35.63;5.00;38.95;;
49732;Laerm;43666;51.442;6.778;2023-05-10T08:01:42;35.63;23.90;39.21;;
49732;Laerm;43666;51.442;6.778;2023-05-10T08:04:08;35.62;5.00;39.46;;
49732;Laerm;43666;51.442;6.778;2023-05-10T08:06:34;35.57;23.90;39.58;;
49732;Laerm;43666;51.442;6.778;2023-05-10T08:09:00;35.63;23.90;39.46;;
49732;Laerm;43666;51.442;6.778;2023-05-10T08:11:26;35.71;23.90;40.03;;
49732;Laerm;43666;51.442;6.778;2023-05-10T08:13:53;35.67;23.90;39.08;;
49732;Laerm;43666;51.442;6.778;2023-05-10T08:16:19;35.75;23.90;39.70;;
49732;Laerm;43666;51.442;6.778;2023-05-10T08:18:45;35.85;23.90;39.81;;
49732;Laerm;43666;51.442;6.778;2023-05-10T08:21:13;35.83;23.90;39.21;;
49732;Laerm;43666;51.442;6.778;2023-05-10T08:23:39;35.79;23.90;39.34;;
49732;Laerm;43666;51.442;6.778;2023-05-10T08:26:05;35.81;5.00;39.70;;
49732;Laerm;43666;51.442;6.778;2023-05-10T08:28:30;35.81;23.90;39.58;;
49732;Laerm;43666;51.442;6.778;2023-05-10T08:30:56;35.78;23.90;39.35;;
49732;Laerm;43666;51.442;6.778;2023-05-10T08:33:22;35.70;23.90;39.58;;
49732;Laerm;43666;51.442;6.778;2023-05-10T08:35:48;35.69;5.00;39.21;;
49732;Laerm;43666;51.442;6.778;2023-05-10T08:38:14;35.63;23.90;39.70;;
49732;Laerm;43666;51.442;6.778;2023-05-10T08:40:41;35.74;23.90;39.81;;
49732;Laerm;43666;51.442;6.778;2023-05-10T08:43:08;35.76;26.91;39.89;;
49732;Laerm;43666;51.442;6.778;2023-05-10T08:45:38;35.85;5.00;39.34;;
49732;Laerm;43666;51.442;6.778;2023-05-10T08:48:06;35.91;23.90;39.46;;
49732;Laerm;43666;51.442;6.778;2023-05-10T08:50:32;36.00;23.90;39.70;;
49732;Laerm;43666;51.442;6.778;2023-05-10T08:53:00;36.18;28.67;39.58;;
49732;Laerm;43666;51.442;6.778;2023-05-10T08:55:26;36.42;26.91;40.03;;
49732;Laerm;43666;51.442;6.778;2023-05-10T08:57:53;36.70;5.00;39.92;;
49732;Laerm;43666;51.442;6.778;2023-05-10T09:00:19;36.70;28.32;39.70;;
49732;Laerm;43666;51.442;6.778;2023-05-10T09:02:45;36.77;30.89;39.58;;
49732;Laerm;43666;51.442;6.778;2023-05-10T09:05:13;36.79;30.89;40.03;;
49732;Laerm;43666;51.442;6.778;2023-05-10T09:07:46;36.82;29.92;39.81;;
49732;Laerm;43666;51.442;6.778;2023-05-10T09:10:12;36.86;29.92;39.68;;
49732;Laerm;43666;51.442;6.778;2023-05-10T09:12:38;36.84;29.92;39.89;;
49732;Laerm;43666;51.442;6.778;2023-05-10T09:15:05;36.84;29.92;40.03;;
49732;Laerm;43666;51.442;6.778;2023-05-10T09:17:31;36.79;31.68;39.46;;
49732;Laerm;43666;51.442;6.778;2023-05-10T09:20:00;36.82;28.67;40.03;;
49732;Laerm;43666;51.442;6.778;2023-05-10T09:22:26;36.86;30.89;40.98;;
49732;Laerm;43666;51.442;6.778;2023-05-10T09:25:09;36.90;30.89;41.53;;
49732;Laerm;43666;51.442;6.778;2023-05-10T09:27:36;36.79;29.92;40.03;;
49732;Laerm;43666;51.442;6.778;2023-05-10T09:30:03;36.89;30.89;40.89;;
49732;Laerm;43666;51.442;6.778;2023-05-10T09:32:42;36.88;30.89;39.70;;
49732;Laerm;43666;51.442;6.778;2023-05-10T09:35:15;36.91;30.89;39.81;;
49732;Laerm;43666;51.442;6.778;2023-05-10T09:37:46;36.92;30.89;39.58;;
49732;Laerm;43666;51.442;6.778;2023-05-10T09:40:15;36.96;31.68;40.13;;
49732;Laerm;43666;51.442;6.778;2023-05-10T09:45:40;36.93;29.92;39.81;;
49732;Laerm;43666;51.442;6.778;2023-05-10T09:48:06;36.91;28.67;39.81;;
49732;Laerm;43666;51.442;6.778;2023-05-10T09:50:32;36.88;31.68;40.23;;
49732;Laerm;43666;51.442;6.778;2023-05-10T09:53:00;36.87;30.89;39.92;;
49732;Laerm;43666;51.442;6.778;2023-05-10T09:58:01;36.85;30.89;39.70;;
49732;Laerm;43666;51.442;6.778;2023-05-10T10:00:28;36.88;31.68;39.81;;
49732;Laerm;43666;51.442;6.778;2023-05-10T10:02:54;36.87;29.92;39.58;;
49732;Laerm;43666;51.442;6.778;2023-05-10T10:05:20;36.80;30.89;39.92;;
49732;Laerm;43666;51.442;6.778;2023-05-10T10:07:47;36.78;28.67;39.58;;
49732;Laerm;43666;51.442;6.778;2023-05-10T10:10:14;36.85;31.68;40.33;;
49732;Laerm;43666;51.442;6.778;2023-05-10T10:12:41;36.82;29.92;39.70;;
49732;Laerm;43666;51.442;6.778;2023-05-10T10:15:07;36.84;31.33;39.81;;
49732;Laerm;43666;51.442;6.778;2023-05-10T10:17:33;36.83;30.89;39.81;;
49732;Laerm;43666;51.442;6.778;2023-05-10T10:20:01;36.83;26.91;39.81;;
49732;Laerm;43666;51.442;6.778;2023-05-10T10:22:28;36.87;29.92;40.03;;
49732;Laerm;43666;51.442;6.778;2023-05-10T10:24:53;36.85;31.68;39.81;;
49732;Laerm;43666;51.442;6.778;2023-05-10T10:30:21;36.95;30.89;39.81;;
49732;Laerm;43666;51.442;6.778;2023-05-10T10:35:17;36.86;28.67;39.92;;
49732;Laerm;43666;51.442;6.778;2023-05-10T10:37:43;36.85;28.67;39.81;;
49732;Laerm;43666;51.442;6.778;2023-05-10T10:40:25;36.83;31.68;39.81;;
49732;Laerm;43666;51.442;6.778;2023-05-10T10:42:51;36.88;30.89;39.81;;
49732;Laerm;43666;51.442;6.778;2023-05-10T10:45:17;36.87;30.89;39.81;;
49732;Laerm;43666;51.442;6.778;2023-05-10T10:47:43;36.87;31.68;39.70;;
49732;Laerm;43666;51.442;6.778;2023-05-10T10:50:10;36.88;30.89;40.33;;
49732;Laerm;43666;51.442;6.778;2023-05-10T10:52:38;36.88;30.89;40.03;;
49732;Laerm;43666;51.442;6.778;2023-05-10T10:57:32;36.83;30.89;39.70;;
49732;Laerm;43666;51.442;6.778;2023-05-10T11:02:46;36.83;30.89;40.23;;
49732;Laerm;43666;51.442;6.778;2023-05-10T11:07:52;36.97;30.89;39.81;;
49732;Laerm;43666;51.442;6.778;2023-05-10T11:10:19;36.98;29.92;39.92;;
49732;Laerm;43666;51.442;6.778;2023-05-10T11:13:02;37.02;30.89;40.23;;
49732;Laerm;43666;51.442;6.778;2023-05-10T11:15:28;37.02;28.67;39.92;;
49732;Laerm;43666;51.442;6.778;2023-05-10T11:17:55;37.04;29.92;39.81;;
49732;Laerm;43666;51.442;6.778;2023-05-10T11:20:21;36.99;31.68;40.03;;
49732;Laerm;43666;51.442;6.778;2023-05-10T11:22:53;37.03;31.33;39.92;;
49732;Laerm;43666;51.442;6.778;2023-05-10T11:25:19;37.08;30.89;40.62;;
49732;Laerm;43666;51.442;6.778;2023-05-10T11:27:47;37.07;31.68;41.22;;
49732;Laerm;43666;51.442;6.778;2023-05-10T11:30:13;37.14;31.68;39.92;;
49732;Laerm;43666;51.442;6.778;2023-05-10T11:32:40;37.09;32.35;39.92;;
49732;Laerm;43666;51.442;6.778;2023-05-10T11:35:09;37.07;28.67;39.70;;
49732;Laerm;43666;51.442;6.778;2023-05-10T11:37:35;37.16;29.92;40.53;;
49732;Laerm;43666;51.442;6.778;2023-05-10T11:40:01;37.19;31.68;39.92;;
49732;Laerm;43666;51.442;6.778;2023-05-10T11:42:29;37.14;32.35;40.23;;
49732;Laerm;43666;51.442;6.778;2023-05-10T11:44:56;37.14;31.68;40.13;;
49732;Laerm;43666;51.442;6.778;2023-05-10T11:47:21;37.07;31.68;40.03;;
49732;Laerm;43666;51.442;6.778;2023-05-10T11:49:47;37.13;31.68;40.62;;
49732;Laerm;43666;51.442;6.778;2023-05-10T11:52:13;37.34;31.68;40.53;;
49732;Laerm;43666;51.442;6.778;2023-05-10T11:54:44;37.39;30.89;40.23;;
49732;Laerm;43666;51.442;6.778;2023-05-10T11:57:10;37.23;31.68;40.23;;
49732;Laerm;43666;51.442;6.778;2023-05-10T11:59:36;37.20;31.68;40.43;;
49732;Laerm;43666;51.442;6.778;2023-05-10T12:02:02;37.31;30.89;41.88;;
49732;Laerm;43666;51.442;6.778;2023-05-10T12:04:28;37.13;31.68;40.62;;
49732;Laerm;43666;51.442;6.778;2023-05-10T12:06:55;37.37;31.68;40.89;;
49732;Laerm;43666;51.442;6.778;2023-05-10T12:09:21;37.29;30.89;41.46;;
49732;Laerm;43666;51.442;6.778;2023-05-10T12:11:46;37.06;32.35;40.53;;
49732;Laerm;43666;51.442;6.778;2023-05-10T12:14:12;37.10;30.89;41.06;;
49732;Laerm;43666;51.442;6.778;2023-05-10T12:16:39;37.17;30.89;40.27;;
49732;Laerm;43666;51.442;6.778;2023-05-10T12:19:05;37.21;31.68;43.14;;
49732;Laerm;43666;51.442;6.778;2023-05-10T12:21:30;37.43;32.35;40.89;;
49732;Laerm;43666;51.442;6.778;2023-05-10T12:24:01;37.21;31.68;40.62;;
49732;Laerm;43666;51.442;6.778;2023-05-10T12:26:27;37.10;30.89;40.23;;
49732;Laerm;43666;51.442;6.778;2023-05-10T12:28:55;37.03;31.68;40.23;;
49732;Laerm;43666;51.442;6.778;2023-05-10T12:31:21;37.05;30.89;39.92;;
49732;Laerm;43666;51.442;6.778;2023-05-10T12:33:47;37.19;29.92;40.62;;
49732;Laerm;43666;51.442;6.778;2023-05-10T12:36:15;37.21;32.35;40.89;;
49732;Laerm;43666;51.442;6.778;2023-05-10T12:38:41;37.19;30.89;40.03;;
49732;Laerm;43666;51.442;6.778;2023-05-10T12:41:15;37.18;29.92;40.33;;
49732;Laerm;43666;51.442;6.778;2023-05-10T12:43:41;37.28;31.68;40.23;;
49732;Laerm;43666;51.442;6.778;2023-05-10T12:46:08;37.24;30.89;39.92;;
49732;Laerm;43666;51.442;6.778;2023-05-10T12:48:36;37.39;32.35;40.43;;
49732;Laerm;43666;51.442;6.778;2023-05-10T12:51:02;37.59;32.93;42.82;;
49732;Laerm;43666;51.442;6.778;2023-05-10T12:53:28;37.59;32.35;40.62;;
49732;Laerm;43666;51.442;6.778;2023-05-10T12:55:55;37.55;32.93;40.89;;
49732;Laerm;43666;51.442;6.778;2023-05-10T12:58:21;37.55;32.35;42.03;;
49732;Laerm;43666;51.442;6.778;2023-05-10T13:00:47;37.42;31.68;42.74;;
49732;Laerm;43666;51.442;6.778;2023-05-10T13:03:13;37.40;32.93;40.43;;
49732;Laerm;43666;51.442;6.778;2023-05-10T13:05:39;37.48;32.93;40.71;;
49732;Laerm;43666;51.442;6.778;2023-05-10T13:08:05;37.37;31.68;40.43;;
49732;Laerm;43666;51.442;6.778;2023-05-10T13:10:31;37.39;32.35;40.03;;
49732;Laerm;43666;51.442;6.778;2023-05-10T13:12:57;37.49;32.35;40.43;;
49732;Laerm;43666;51.442;6.778;2023-05-10T13:15:24;37.47;32.93;40.98;;
49732;Laerm;43666;51.442;6.778;2023-05-10T13:17:50;37.50;32.35;40.53;;
49732;Laerm;43666;51.442;6.778;2023-05-10T13:20:16;37.38;32.35;40.03;;
49732;Laerm;43666;51.442;6.778;2023-05-10T13:22:45;37.70;32.35;40.80;;
49732;Laerm;43666;51.442;6.778;2023-05-10T13:25:11;37.78;33.44;40.33;;
49732;Laerm;43666;51.442;6.778;2023-05-10T13:27:39;37.63;33.44;40.43;;
49732;Laerm;43666;51.442;6.778;2023-05-10T13:30:06;37.41;31.68;39.92;;
49732;Laerm;43666;51.442;6.778;2023-05-10T13:32:32;37.47;32.35;49.67;;
49732;Laerm;43666;51.442;6.778;2023-05-10T13:34:58;37.39;32.35;39.92;;
49732;Laerm;43666;51.442;6.778;2023-05-10T13:37:24;37.32;32.93;40.03;;
49732;Laerm;43666;51.442;6.778;2023-05-10T13:39:50;37.35;32.35;40.13;;
49732;Laerm;43666;51.442;6.778;2023-05-10T13:42:16;37.45;32.35;40.23;;
49732;Laerm;43666;51.442;6.778;2023-05-10T13:44:42;37.61;32.35;40.23;;
49732;Laerm;43666;51.442;6.778;2023-05-10T13:47:08;37.71;32.35;40.33;;
49732;Laerm;43666;51.442;6.778;2023-05-10T13:49:33;37.69;32.93;40.89;;
49732;Laerm;43666;51.442;6.778;2023-05-10T13:51:59;37.76;32.93;40.23;;
49732;Laerm;43666;51.442;6.778;2023-05-10T13:54:31;37.59;32.93;40.23;;
49732;Laerm;43666;51.442;6.778;2023-05-10T13:56:57;37.57;32.93;40.43;;
49732;Laerm;43666;51.442;6.778;2023-05-10T13:59:23;37.59;30.89;40.33;;
49732;Laerm;43666;51.442;6.778;2023-05-10T14:01:48;37.57;32.93;40.03;;
49732;Laerm;43666;51.442;6.778;2023-05-10T14:04:14;37.47;32.93;40.23;;
49732;Laerm;43666;51.442;6.778;2023-05-10T14:06:40;37.44;33.44;40.18;;
49732;Laerm;43666;51.442;6.778;2023-05-10T14:09:06;37.38;32.93;39.92;;
49732;Laerm;43666;51.442;6.778;2023-05-10T14:11:32;37.51;32.93;40.23;;
49732;Laerm;43666;51.442;6.778;2023-05-10T14:13:58;37.66;32.93;40.33;;